Time;durP1;ratioP1;P1;durP2;ratioP2;P2;SDS_P1;SDS_P2;PMS_P1;PMS_P2;Temp;Humidity;BMP_temperature;BMP_pressure;BME280_temperature;BME280_humidity;BME280_pressure;Samples;Min_cycle;Max_cycle;Signal;HPM_P1;HPM_P2
2022/03/25 00:00:40;;;;;;;6.65;6.35;;;;;;;3.59;47.41;101117.47;5014741;28;20469;-63
2022/03/25 00:03:07;;;;;;;6.47;6.18;;;;;;;3.60;47.56;101120.00;5041924;28;20028;-64
2022/03/25 00:05:32;;;;;;;6.50;6.20;;;;;;;3.55;47.98;101110.78;5053316;28;20057;-64
2022/03/25 00:07:58;;;;;;;6.90;6.60;;;;;;;3.53;47.88;101110.91;5040967;28;20171;-63
2022/03/25 00:10:24;;;;;;;6.90;6.60;;;;;;;3.52;47.54;101109.22;5033649;28;20041;-63
2022/03/25 00:12:49;;;;;;;6.70;6.40;;;;;;;3.48;47.61;101107.78;5025247;28;20025;-62
2022/03/25 00:15:16;;;;;;;6.65;6.35;;;;;;;3.41;48.24;101103.94;5023648;28;20025;-64
2022/03/25 00:17:42;;;;;;;6.85;6.53;;;;;;;3.43;48.43;101107.28;5052387;28;20510;-63
2022/03/25 00:20:08;;;;;;;6.72;6.43;;;;;;;3.34;48.31;101105.34;5038304;28;20043;-64
2022/03/25 00:22:34;;;;;;;7.05;6.68;;;;;;;3.33;48.25;101099.28;5039064;28;20021;-64
2022/03/25 00:25:00;;;;;;;6.82;6.50;;;;;;;3.36;48.43;101098.19;5032799;28;20419;-63
2022/03/25 00:27:26;;;;;;;6.60;6.30;;;;;;;3.28;49.07;101092.69;5026188;28;20030;-64
2022/03/25 00:29:52;;;;;;;6.65;6.35;;;;;;;3.25;48.91;101092.94;5013150;28;20026;-64
2022/03/25 00:32:18;;;;;;;6.90;6.50;;;;;;;3.18;49.09;101076.81;5035794;28;20117;-63
2022/03/25 00:34:44;;;;;;;6.75;6.45;;;;;;;3.22;49.16;101090.53;5037425;28;20378;-63
2022/03/25 00:37:10;;;;;;;6.65;6.35;;;;;;;3.18;49.42;101079.44;5040250;28;20064;-64
2022/03/25 00:39:36;;;;;;;6.53;6.22;;;;;;;3.13;49.25;101075.47;5032763;28;20028;-64
2022/03/25 00:42:03;;;;;;;7.25;6.85;;;;;;;3.09;49.07;101071.44;5032691;28;20025;-63
2022/03/25 00:44:29;;;;;;;6.78;6.47;;;;;;;3.03;49.61;101070.91;5032508;28;20108;-64
2022/03/25 00:46:54;;;;;;;6.40;6.10;;;;;;;3.09;49.30;101076.66;5032731;28;20121;-64
2022/03/25 00:49:20;;;;;;;7.53;7.13;;;;;;;3.04;49.81;101062.09;5019870;28;20022;-64
2022/03/25 00:51:46;;;;;;;6.65;6.35;;;;;;;3.07;49.50;101070.69;5033041;28;20075;-63
2022/03/25 00:54:13;;;;;;;7.10;6.70;;;;;;;2.98;50.17;101065.16;5037502;28;20032;-63
2022/03/25 00:56:39;;;;;;;6.65;6.35;;;;;;;3.02;50.41;101065.78;5030954;28;20064;-62
2022/03/25 00:59:04;;;;;;;6.95;6.60;;;;;;;3.00;50.07;101065.88;5032344;28;20026;-63
2022/03/25 01:01:30;;;;;;;6.38;6.07;;;;;;;2.98;50.38;101065.16;5032295;28;20706;-64
2022/03/25 01:03:55;;;;;;;6.30;6.00;;;;;;;3.00;50.78;101052.78;5031518;28;20049;-63
2022/03/25 01:06:21;;;;;;;6.65;6.35;;;;;;;3.03;50.69;101054.34;5034878;28;20705;-64
2022/03/25 01:08:47;;;;;;;6.80;6.47;;;;;;;3.09;49.89;101058.31;5034222;28;20105;-64
2022/03/25 01:11:13;;;;;;;7.30;6.90;;;;;;;3.01;50.63;101049.25;5018904;28;20104;-65
2022/03/25 01:13:39;;;;;;;6.60;6.30;;;;;;;2.97;50.97;101053.00;5052081;28;20531;-65
2022/03/25 01:16:07;;;;;;;6.60;6.30;;;;;;;2.99;50.72;101052.91;5051728;28;20025;-66
2022/03/25 01:18:33;;;;;;;6.75;6.45;;;;;;;3.02;50.72;101053.53;5044098;28;20032;-65
2022/03/25 01:20:59;;;;;;;6.60;6.30;;;;;;;3.01;50.82;101048.38;5032050;28;20503;-65
2022/03/25 01:23:25;;;;;;;6.78;6.38;;;;;;;2.98;50.61;101046.81;5028142;28;20451;-64
2022/03/25 01:25:51;;;;;;;7.10;6.70;;;;;;;3.02;50.64;101045.66;5042685;28;20436;-64
2022/03/25 01:28:16;;;;;;;6.82;6.53;;;;;;;2.93;50.73;101040.25;5032466;28;20032;-64
2022/03/25 01:30:43;;;;;;;6.63;6.32;;;;;;;2.89;51.28;101042.28;5034040;28;20021;-64
2022/03/25 01:33:09;;;;;;;6.82;6.50;;;;;;;2.93;51.43;101046.31;5040657;28;20028;-65
2022/03/25 01:35:35;;;;;;;6.43;6.13;;;;;;;2.86;51.88;101039.84;5051661;28;20104;-64
2022/03/25 01:38:01;;;;;;;6.30;6.00;;;;;;;2.87;51.27;101046.78;5022121;28;20029;-63
2022/03/25 01:40:27;;;;;;;6.80;6.50;;;;;;;2.82;51.92;101033.19;5028539;28;20502;-64
2022/03/25 01:42:53;;;;;;;7.05;6.65;;;;;;;2.82;52.46;101040.22;5036204;28;20401;-63
2022/03/25 01:45:45;;;;;;;6.40;6.10;;;;;;;2.82;52.75;101034.97;5032552;28;20033;-63
2022/03/25 01:48:16;;;;;;;6.50;6.20;;;;;;;2.80;52.16;101036.88;5046020;28;20045;-64
2022/03/25 01:50:45;;;;;;;6.88;6.55;;;;;;;2.76;52.61;101031.00;5028074;28;20022;-64
2022/03/25 01:53:17;;;;;;;6.78;6.47;;;;;;;2.73;52.76;101034.69;5036212;28;20041;-63
2022/03/25 01:55:57;;;;;;;6.47;6.18;;;;;;;2.76;52.69;101031.00;5037005;28;20126;-64
2022/03/25 01:58:24;;;;;;;6.85;6.55;;;;;;;2.63;52.72;101020.56;5035220;28;20025;-64
2022/03/25 02:00:50;;;;;;;6.82;6.50;;;;;;;2.68;52.90;101023.72;5031325;28;20075;-64
2022/03/25 02:03:19;;;;;;;6.47;6.18;;;;;;;2.68;52.64;101028.94;5030947;28;20396;-64
2022/03/25 02:05:46;;;;;;;6.68;6.38;;;;;;;2.65;52.75;101033.59;5018567;28;20087;-64
2022/03/25 02:08:12;;;;;;;6.65;6.35;;;;;;;2.61;52.82;101027.72;5011929;28;20045;-63
2022/03/25 02:10:39;;;;;;;7.25;6.85;;;;;;;2.55;53.50;101027.31;5023467;28;20029;-64
2022/03/25 02:13:05;;;;;;;6.65;6.35;;;;;;;2.62;52.85;101023.31;5039370;28;20036;-63
2022/03/25 02:15:42;;;;;;;6.65;6.35;;;;;;;2.58;53.08;101024.50;5031404;28;20022;-63
2022/03/25 02:18:10;;;;;;;6.57;6.28;;;;;;;2.54;53.64;101028.28;5015731;28;20047;-63
2022/03/25 02:20:37;;;;;;;7.45;7.05;;;;;;;2.56;54.04;101015.91;5031371;28;20022;-64
2022/03/25 02:23:04;;;;;;;6.70;6.40;;;;;;;2.49;54.15;101013.72;5031287;28;20480;-64
2022/03/25 02:25:30;;;;;;;6.63;6.32;;;;;;;2.50;53.72;101014.59;5063973;28;20036;-63
2022/03/25 02:27:58;;;;;;;6.93;6.63;;;;;;;2.52;54.80;101017.09;5044248;28;20021;-63
2022/03/25 02:30:25;;;;;;;6.75;6.45;;;;;;;2.51;54.22;101015.41;5033505;28;20109;-64
2022/03/25 02:32:51;;;;;;;6.75;6.43;;;;;;;2.50;54.47;101011.97;5031479;28;20029;-63
2022/03/25 02:35:17;;;;;;;6.63;6.32;;;;;;;2.47;54.99;101020.03;5011318;28;20022;-63
2022/03/25 02:37:42;;;;;;;6.20;5.90;;;;;;;2.47;54.79;101025.25;5030628;28;20389;-63
2022/03/25 02:40:09;;;;;;;6.35;6.05;;;;;;;2.47;55.34;101023.47;5031121;28;20022;-63
2022/03/25 02:42:34;;;;;;;6.70;6.40;;;;;;;2.46;55.15;101019.19;5031131;28;20025;-63
2022/03/25 02:44:59;;;;;;;6.63;6.32;;;;;;;2.38;55.18;101020.69;5036025;28;20025;-63
2022/03/25 02:47:25;;;;;;;6.63;6.32;;;;;;;2.35;55.55;101013.91;5054734;28;20067;-63
2022/03/25 02:49:51;;;;;;;6.40;6.10;;;;;;;2.35;55.33;101026.13;5044441;28;20021;-63
2022/03/25 02:52:17;;;;;;;6.78;6.47;;;;;;;2.34;56.27;101019.22;5041798;28;20033;-63
2022/03/25 02:54:42;;;;;;;6.15;5.85;;;;;;;2.28;55.78;101020.53;5052218;28;20021;-63
2022/03/25 02:57:08;;;;;;;6.55;6.25;;;;;;;2.32;56.25;101021.13;5039528;28;20111;-62
2022/03/25 02:59:33;;;;;;;6.85;6.55;;;;;;;2.23;56.11;101012.16;5034515;28;20017;-62
2022/03/25 03:01:59;;;;;;;6.45;6.15;;;;;;;2.28;56.31;101017.91;5037026;28;20613;-63
2022/03/25 03:04:25;;;;;;;6.90;6.53;;;;;;;2.21;56.71;101011.44;5080179;28;20071;-64
2022/03/25 03:06:50;;;;;;;6.75;6.45;;;;;;;2.18;57.33;101012.47;5045316;28;20441;-64
2022/03/25 03:09:16;;;;;;;7.13;6.72;;;;;;;2.19;56.91;101014.13;5052945;28;20032;-64
2022/03/25 03:11:41;;;;;;;6.65;6.35;;;;;;;2.14;57.75;101018.03;5023872;28;20037;-64
2022/03/25 03:14:08;;;;;;;7.00;6.60;;;;;;;2.07;57.84;101001.94;5012986;28;20302;-64
2022/03/25 03:16:33;;;;;;;6.70;6.40;;;;;;;2.19;57.96;101016.75;5014541;28;20164;-63
2022/03/25 03:18:59;;;;;;;8.13;7.63;;;;;;;2.13;58.14;101011.09;5025817;28;20492;-64
2022/03/25 03:21:25;;;;;;;6.65;6.35;;;;;;;2.12;57.91;101005.03;5045505;28;20108;-63
2022/03/25 03:23:53;;;;;;;6.28;5.97;;;;;;;2.10;58.09;101012.16;5034062;28;20028;-63
2022/03/25 03:26:20;;;;;;;6.65;6.35;;;;;;;2.10;58.49;101006.09;5045706;28;20028;-63
2022/03/25 03:28:45;;;;;;;6.65;6.35;;;;;;;2.12;58.51;101017.28;5035546;28;20033;-63
2022/03/25 03:31:11;;;;;;;6.72;6.43;;;;;;;2.14;58.55;101018.03;5065483;28;20037;-64
2022/03/25 03:33:36;;;;;;;6.63;6.32;;;;;;;2.18;58.97;101016.88;5046630;28;20040;-64
2022/03/25 03:36:03;;;;;;;7.65;7.22;;;;;;;2.19;58.69;101014.13;5051738;28;20028;-64
2022/03/25 03:38:29;;;;;;;6.80;6.45;;;;;;;2.24;58.74;101012.97;5049218;28;20029;-64
2022/03/25 03:40:54;;;;;;;6.85;6.50;;;;;;;2.12;58.56;100989.34;5052290;28;20029;-64
2022/03/25 03:43:20;;;;;;;6.53;6.22;;;;;;;2.22;58.92;101002.63;5047945;28;20164;-64
2022/03/25 03:45:45;;;;;;;6.55;6.25;;;;;;;2.28;58.47;101002.19;5034093;28;20025;-64
2022/03/25 03:48:11;;;;;;;6.38;6.07;;;;;;;2.38;58.13;101003.19;5023086;28;20040;-64
2022/03/25 03:50:38;;;;;;;7.00;6.60;;;;;;;2.39;58.38;101002.25;5033763;28;20025;-63
2022/03/25 03:53:03;;;;;;;6.35;6.05;;;;;;;2.42;59.27;101001.19;5040761;28;20028;-63
2022/03/25 03:55:30;;;;;;;6.35;6.05;;;;;;;2.46;58.49;100995.63;5041136;28;20063;-64
2022/03/25 03:57:55;;;;;;;6.40;6.10;;;;;;;2.54;59.20;101008.16;5033579;28;20028;-64
2022/03/25 04:00:21;;;;;;;6.72;6.43;;;;;;;2.49;58.55;100997.16;5052099;28;20036;-64
2022/03/25 04:02:47;;;;;;;6.32;6.03;;;;;;;2.59;59.14;101006.06;5026450;28;20069;-64
2022/03/25 04:05:13;;;;;;;7.07;6.68;;;;;;;2.55;58.29;100995.91;5033542;28;20025;-64
2022/03/25 04:07:40;;;;;;;7.07;6.68;;;;;;;2.66;58.35;100998.59;5048912;28;20498;-64
2022/03/25 04:10:06;;;;;;;6.63;6.32;;;;;;;2.65;58.68;100989.06;5047446;28;20025;-64
2022/03/25 04:12:32;;;;;;;7.03;6.63;;;;;;;2.73;58.88;100995.41;5042353;28;20506;-65
2022/03/25 04:14:57;;;;;;;6.85;6.50;;;;;;;2.81;58.00;101002.69;5030618;28;20025;-64
2022/03/25 04:17:25;;;;;;;6.65;6.35;;;;;;;2.80;58.59;101000.19;5024296;28;20032;-65
2022/03/25 04:19:51;;;;;;;6.82;6.53;;;;;;;2.82;57.91;101003.53;5018000;28;20083;-63
2022/03/25 04:22:17;;;;;;;6.60;6.30;;;;;;;2.88;58.30;100998.69;5015068;28;20042;-64
2022/03/25 04:24:43;;;;;;;6.95;6.60;;;;;;;2.92;58.05;101005.34;5033562;28;20101;-64
2022/03/25 04:27:09;;;;;;;6.78;6.47;;;;;;;2.92;58.84;101001.88;5044008;28;20473;-65
2022/03/25 04:29:34;;;;;;;6.97;6.57;;;;;;;2.99;58.21;101005.72;5026038;28;20030;-64
2022/03/25 04:32:00;;;;;;;6.72;6.43;;;;;;;3.08;58.21;101015.50;5031158;28;20029;-64
2022/03/25 04:34:25;;;;;;;6.70;6.40;;;;;;;3.17;58.47;101016.63;5052368;28;20041;-63
2022/03/25 04:36:51;;;;;;;6.90;6.57;;;;;;;3.17;57.99;101011.41;5047900;28;20067;-64
2022/03/25 04:39:16;;;;;;;6.55;6.25;;;;;;;3.45;57.63;101018.84;5045983;28;20067;-64
2022/03/25 04:41:42;;;;;;;6.47;6.18;;;;;;;3.56;57.05;101016.22;5052581;28;20040;-64
2022/03/25 04:44:07;;;;;;;7.30;6.90;;;;;;;3.58;57.66;101021.34;5039881;28;20558;-64
2022/03/25 04:46:35;;;;;;;7.00;6.65;;;;;;;3.58;57.02;101024.81;5042627;28;20036;-65
2022/03/25 04:49:00;;;;;;;8.38;7.88;;;;;;;3.84;56.37;101035.09;5038406;28;20025;-64
2022/03/25 04:51:26;;;;;;;6.63;6.32;;;;;;;3.42;57.53;101026.09;5042647;28;20111;-66
2022/03/25 04:53:51;;;;;;;6.47;6.18;;;;;;;3.36;60.82;101032.63;5034918;28;20107;-65
2022/03/25 04:56:18;;;;;;;6.78;6.47;;;;;;;3.39;65.29;101042.09;5027170;28;20045;-65
2022/03/25 04:58:44;;;;;;;7.20;6.80;;;;;;;3.51;68.83;101047.22;5023891;28;20033;-63
2022/03/25 05:01:10;;;;;;;7.05;6.70;;;;;;;3.83;74.94;101041.31;5043797;28;20029;-62
2022/03/25 05:03:35;;;;;;;7.25;6.85;;;;;;;3.82;74.87;101047.53;5030663;28;20037;-63
2022/03/25 05:06:01;;;;;;;8.43;7.93;;;;;;;3.82;76.04;101052.75;5033588;28;20029;-62
2022/03/25 05:08:26;;;;;;;7.30;6.90;;;;;;;3.78;77.84;101051.31;5032889;28;20041;-62
2022/03/25 05:10:52;;;;;;;7.30;6.90;;;;;;;3.80;79.01;101044.16;5033465;28;20571;-62
2022/03/25 05:13:18;;;;;;;7.30;6.90;;;;;;;3.79;80.56;101045.09;5031060;28;20029;-61
2022/03/25 05:15:43;;;;;;;8.32;7.82;;;;;;;3.82;79.62;101040.47;5054879;28;20377;-66
2022/03/25 05:18:09;;;;;;;7.90;7.50;;;;;;;3.79;80.62;101051.19;5026284;28;20025;-63
2022/03/25 05:20:36;;;;;;;7.50;7.10;;;;;;;3.44;83.37;101042.53;5028902;28;20025;-64
2022/03/25 05:23:02;;;;;;;7.72;7.32;;;;;;;3.56;83.34;101042.47;5035127;28;20021;-63
2022/03/25 05:25:27;;;;;;;7.07;6.68;;;;;;;3.58;84.76;101048.41;5041117;28;20021;-64
2022/03/25 05:27:57;;;;;;;7.53;7.13;;;;;;;3.68;86.32;101042.50;5033486;28;20082;-63
2022/03/25 05:30:31;;;;;;;7.82;7.43;;;;;;;3.71;86.51;101050.94;5046804;28;20028;-64
2022/03/25 05:32:58;;;;;;;7.10;6.72;;;;;;;3.63;87.95;101047.25;5033976;28;20086;-64
2022/03/25 05:35:25;;;;;;;8.13;7.65;;;;;;;3.78;86.91;101048.69;5032233;28;20579;-68
2022/03/25 05:37:51;;;;;;;7.25;6.85;;;;;;;3.79;87.11;101053.81;5031104;28;20108;-64
2022/03/25 05:40:19;;;;;;;7.47;7.07;;;;;;;3.74;88.94;101060.38;5035810;28;20040;-64
2022/03/25 05:42:45;;;;;;;6.78;6.47;;;;;;;3.85;88.36;101063.00;5015475;28;20018;-64
2022/03/25 05:45:10;;;;;;;7.47;7.07;;;;;;;4.01;88.08;101055.63;5042154;28;20033;-64
2022/03/25 05:47:38;;;;;;;7.15;6.75;;;;;;;3.96;87.83;101052.50;5031096;28;20032;-63
2022/03/25 05:50:05;;;;;;;7.10;6.70;;;;;;;3.88;91.13;101042.59;5031290;28;20389;-64
2022/03/25 05:52:31;;;;;;;7.85;7.45;;;;;;;4.10;88.50;101047.00;5042345;28;20459;-64
2022/03/25 05:54:56;;;;;;;7.30;6.90;;;;;;;4.04;88.78;101044.91;5031186;28;20037;-64
2022/03/25 05:57:22;;;;;;;7.93;7.53;;;;;;;4.14;88.93;101043.22;5040315;28;20497;-62
2022/03/25 05:59:48;;;;;;;6.88;6.57;;;;;;;4.33;87.68;101050.47;5021515;28;20041;-63
2022/03/25 06:02:13;;;;;;;6.95;6.60;;;;;;;4.44;88.04;101068.84;5040029;28;20032;-63
2022/03/25 06:04:40;;;;;;;7.60;7.20;;;;;;;4.43;87.62;101074.22;5035625;28;20396;-63
2022/03/25 06:07:06;;;;;;;7.50;7.10;;;;;;;4.54;88.27;101066.31;5034068;28;20112;-65
2022/03/25 06:09:32;;;;;;;8.25;7.78;;;;;;;4.61;87.78;101067.47;5063751;28;20152;-63
2022/03/25 06:11:57;;;;;;;7.10;6.70;;;;;;;4.53;88.30;101069.06;5029925;28;20089;-64
2022/03/25 06:14:24;;;;;;;7.45;7.05;;;;;;;4.36;89.44;101073.88;5032674;28;20500;-65
2022/03/25 06:16:50;;;;;;;7.22;6.82;;;;;;;4.35;91.21;101064.31;5042957;28;20028;-65
2022/03/25 06:19:17;;;;;;;7.05;6.68;;;;;;;4.38;89.88;101073.75;5032743;28;20029;-65
2022/03/25 06:21:43;;;;;;;7.03;6.68;;;;;;;4.22;92.08;101062.78;5037027;28;20675;-65
2022/03/25 06:24:08;;;;;;;8.27;7.78;;;;;;;4.23;91.03;101070.53;5044100;28;20498;-64
2022/03/25 06:26:34;;;;;;;7.50;7.10;;;;;;;4.13;91.23;101059.91;5030348;28;20029;-65
2022/03/25 06:29:00;;;;;;;6.65;6.35;;;;;;;4.15;91.75;101065.03;5031227;28;20033;-66
2022/03/25 06:31:25;;;;;;;7.18;6.78;;;;;;;4.18;90.20;101043.78;5026973;28;20459;-65
2022/03/25 06:33:50;;;;;;;7.70;7.30;;;;;;;4.22;89.89;101081.16;5038658;28;20061;-65
2022/03/25 06:36:16;;;;;;;7.80;7.40;;;;;;;4.07;89.92;101083.19;5034270;28;20053;-65
2022/03/25 06:38:42;;;;;;;7.13;6.72;;;;;;;4.11;90.69;101100.34;5046400;28;20029;-65
2022/03/25 06:41:09;;;;;;;7.47;7.07;;;;;;;4.20;91.47;101123.31;5034646;28;20103;-66
2022/03/25 06:43:35;;;;;;;7.70;7.30;;;;;;;3.94;92.61;101125.28;5044419;28;20025;-65
2022/03/25 06:46:00;;;;;;;7.28;6.88;;;;;;;3.74;95.28;101131.22;5041854;28;20420;-65
2022/03/25 06:48:26;;;;;;;7.30;6.90;;;;;;;3.54;97.40;101130.09;5035199;28;20040;-65
2022/03/25 06:50:53;;;;;;;8.07;7.63;;;;;;;3.43;99.53;101137.91;5045602;28;20395;-65
2022/03/25 06:53:20;;;;;;;8.70;8.20;;;;;;;3.17;100.00;101147.72;5042899;28;20037;-66
2022/03/25 06:55:46;;;;;;;7.55;7.15;;;;;;;3.33;100.00;101146.47;5036946;28;20080;-65
2022/03/25 06:58:12;;;;;;;7.68;7.28;;;;;;;3.45;100.00;101147.38;5036555;28;20709;-65
2022/03/25 07:00:38;;;;;;;6.90;6.55;;;;;;;3.39;100.00;101155.69;5049210;28;20068;-65
2022/03/25 07:03:04;;;;;;;7.10;6.70;;;;;;;3.22;100.00;101167.38;5041324;28;20021;-65
2022/03/25 07:05:30;;;;;;;6.82;6.53;;;;;;;3.14;100.00;101168.91;5047181;28;20189;-65
2022/03/25 07:07:57;;;;;;;6.50;6.20;;;;;;;2.88;100.00;101168.16;5032819;28;20523;-65
2022/03/25 07:10:23;;;;;;;6.57;6.28;;;;;;;3.04;100.00;101169.56;5048278;28;20357;-66
2022/03/25 07:12:51;;;;;;;7.60;7.20;;;;;;;3.19;100.00;101177.28;5038765;28;20060;-65
2022/03/25 07:15:17;;;;;;;7.70;7.30;;;;;;;3.23;100.00;101166.47;5044011;28;20081;-65
2022/03/25 07:17:43;;;;;;;7.68;7.28;;;;;;;3.37;100.00;101172.47;5045239;28;20099;-65
2022/03/25 07:20:13;;;;;;;7.00;6.60;;;;;;;3.51;100.00;101180.16;5049582;28;20032;-64
2022/03/25 07:22:41;;;;;;;7.38;6.97;;;;;;;3.44;100.00;101174.53;5029750;28;20112;-65
2022/03/25 07:25:07;;;;;;;6.80;6.50;;;;;;;3.42;100.00;101181.66;5047098;28;20029;-64
2022/03/25 07:27:33;;;;;;;7.13;6.78;;;;;;;3.40;100.00;101174.88;5044799;28;20028;-64
2022/03/25 07:29:58;;;;;;;6.90;6.60;;;;;;;3.40;100.00;101188.81;5039545;28;20373;-65
2022/03/25 07:32:24;;;;;;;7.25;6.85;;;;;;;3.42;100.00;101188.72;5042314;28;20040;-65
2022/03/25 07:34:49;;;;;;;7.60;7.20;;;;;;;3.69;100.00;101186.69;5037981;28;20104;-65
2022/03/25 07:37:15;;;;;;;7.60;7.20;;;;;;;3.83;100.00;101190.91;5030813;28;20022;-64
2022/03/25 07:39:42;;;;;;;6.65;6.35;;;;;;;4.01;100.00;101193.91;5044656;28;20029;-65
2022/03/25 07:42:07;;;;;;;6.88;6.50;;;;;;;3.80;100.00;101191.13;5037976;28;20037;-65
2022/03/25 07:44:35;;;;;;;6.85;6.55;;;;;;;3.86;100.00;101190.66;5052237;28;20025;-65
2022/03/25 07:47:00;;;;;;;7.50;7.10;;;;;;;4.07;100.00;101188.22;5042807;28;20614;-66
2022/03/25 07:49:26;;;;;;;6.75;6.45;;;;;;;4.36;100.00;101193.84;5038584;28;20029;-65
2022/03/25 07:51:51;;;;;;;6.88;6.53;;;;;;;4.48;99.97;101194.69;5040181;28;20094;-65
2022/03/25 07:54:17;;;;;;;7.47;7.07;;;;;;;4.55;98.56;101186.19;5049416;28;20142;-65
2022/03/25 07:56:42;;;;;;;7.93;7.53;;;;;;;5.18;96.11;101199.66;5036132;28;20033;-66
2022/03/25 07:59:08;;;;;;;7.50;7.10;;;;;;;6.01;91.83;101209.50;5045455;28;20132;-66
2022/03/25 08:01:33;;;;;;;7.47;7.07;;;;;;;6.20;89.83;101219.34;5043558;28;20074;-66
2022/03/25 08:03:59;;;;;;;7.03;6.70;;;;;;;6.29;88.24;101215.91;5036935;28;20022;-65
2022/03/25 08:06:24;;;;;;;6.95;6.65;;;;;;;6.48;86.32;101215.19;5047445;28;20488;-66
2022/03/25 08:08:50;;;;;;;6.45;6.15;;;;;;;6.39;86.57;101206.28;5037449;28;20049;-65
2022/03/25 08:11:20;;;;;;;6.97;6.65;;;;;;;6.00;89.03;101206.03;5044181;28;20037;-66
2022/03/25 08:13:47;;;;;;;8.20;7.78;;;;;;;5.78;91.17;101216.66;5043351;28;20032;-66
2022/03/25 08:16:14;;;;;;;8.35;7.88;;;;;;;5.60;91.41;101208.50;5036206;28;20531;-66
2022/03/25 08:18:40;;;;;;;8.80;8.30;;;;;;;5.36;91.30;101211.34;5020825;28;20032;-65
2022/03/25 08:21:06;;;;;;;7.53;7.13;;;;;;;5.36;91.68;101223.63;5039217;28;20368;-64
2022/03/25 08:29:00;;;;;;;7.63;7.22;;;;;;;7.18;83.98;101227.50;5044842;28;20409;-65
2022/03/25 08:31:26;;;;;;;7.53;7.13;;;;;;;7.88;80.92;101221.19;5039302;28;20021;-66
2022/03/25 08:33:51;;;;;;;7.53;7.13;;;;;;;7.64;80.80;101226.91;5033501;28;20411;-66
2022/03/25 08:36:17;;;;;;;7.88;7.47;;;;;;;9.35;73.79;101233.78;5032198;28;20111;-65
2022/03/25 08:38:44;;;;;;;7.35;6.95;;;;;;;8.28;77.09;101231.56;5048056;28;20515;-66
2022/03/25 08:41:10;;;;;;;7.20;6.88;;;;;;;7.84;78.93;101227.72;5039262;28;20108;-65
2022/03/25 08:43:36;;;;;;;7.25;6.95;;;;;;;8.25;76.73;101233.66;5040359;28;20056;-67
2022/03/25 08:46:03;;;;;;;7.03;6.72;;;;;;;7.84;77.25;101218.97;5038462;28;20038;-66
2022/03/25 08:48:30;;;;;;;7.78;7.38;;;;;;;7.84;75.11;101211.03;5046214;28;20396;-65
2022/03/25 08:50:56;;;;;;;7.30;6.95;;;;;;;8.20;74.33;101233.25;5043062;28;20032;-65
2022/03/25 08:53:22;;;;;;;7.35;6.97;;;;;;;8.64;73.50;101230.94;5042455;28;20037;-65
2022/03/25 08:55:47;;;;;;;6.60;6.30;;;;;;;8.74;73.29;101227.28;5044576;28;20416;-66
2022/03/25 08:58:13;;;;;;;7.10;6.80;;;;;;;8.05;74.73;101227.56;5035706;28;20068;-65
2022/03/25 09:00:38;;;;;;;6.93;6.63;;;;;;;7.83;75.85;101241.91;5034993;28;20025;-65
2022/03/25 09:03:05;;;;;;;6.85;6.55;;;;;;;7.33;75.22;101257.00;5044361;28;20143;-65
2022/03/25 09:05:31;;;;;;;7.05;6.75;;;;;;;7.40;74.95;101240.47;5042120;28;20166;-65
2022/03/25 09:07:56;;;;;;;7.75;7.35;;;;;;;6.95;74.21;101239.25;5037450;28;20184;-65
2022/03/25 09:10:22;;;;;;;7.28;6.90;;;;;;;7.11;73.44;101250.13;5048231;28;20153;-65
2022/03/25 09:12:47;;;;;;;6.90;6.60;;;;;;;7.46;71.45;101241.75;5036118;28;20051;-66
2022/03/25 09:15:14;;;;;;;7.45;7.05;;;;;;;7.74;68.44;101255.94;5049010;28;20021;-66
2022/03/25 09:17:44;;;;;;;7.28;6.93;;;;;;;8.50;63.88;101254.22;5039764;28;20079;-65
2022/03/25 09:20:11;;;;;;;7.53;7.13;;;;;;;8.81;62.32;101254.84;5030955;28;20025;-65
2022/03/25 09:22:37;;;;;;;7.95;7.55;;;;;;;8.20;63.83;101255.22;5040574;28;20025;-65
2022/03/25 09:25:07;;;;;;;6.95;6.65;;;;;;;7.80;65.89;101262.50;5044983;28;20022;-65
2022/03/25 09:27:32;;;;;;;7.35;6.97;;;;;;;7.61;68.23;101255.38;5042287;28;20025;-66
2022/03/25 09:29:58;;;;;;;6.95;6.65;;;;;;;7.28;68.19;101278.53;5036615;28;20079;-66
2022/03/25 09:32:23;;;;;;;7.43;7.03;;;;;;;7.34;68.28;101267.41;5039912;28;20031;-65
2022/03/25 09:37:39;;;;;;;7.10;6.80;;;;;;;8.05;65.31;101285.69;5040283;28;20083;-65
2022/03/25 09:40:08;;;;;;;7.50;7.10;;;;;;;8.28;64.50;101278.31;5046284;28;20563;-66
2022/03/25 09:42:34;;;;;;;6.70;6.40;;;;;;;8.08;65.79;101276.66;5033476;28;20026;-65
2022/03/25 09:45:03;;;;;;;7.05;6.72;;;;;;;7.50;67.96;101272.19;5043837;28;20444;-66
2022/03/25 09:47:30;;;;;;;6.60;6.30;;;;;;;7.91;67.27;101291.41;5040195;28;20029;-66
2022/03/25 09:49:56;;;;;;;7.18;6.88;;;;;;;7.39;69.35;101304.81;5039311;28;20048;-66
2022/03/25 09:52:23;;;;;;;8.13;7.72;;;;;;;7.30;72.70;101317.97;5046865;28;20064;-64
2022/03/25 09:54:48;;;;;;;7.70;7.30;;;;;;;6.61;74.81;101303.66;5032260;28;20031;-66
2022/03/25 09:57:14;;;;;;;8.13;7.72;;;;;;;6.29;77.93;101308.16;5039147;28;20040;-65
2022/03/25 09:59:39;;;;;;;6.70;6.40;;;;;;;5.50;81.29;101323.34;5039556;28;20053;-67
2022/03/25 10:02:05;;;;;;;6.85;6.55;;;;;;;5.42;82.00;101329.22;5045233;28;20033;-65
2022/03/25 10:04:44;;;;;;;7.72;7.32;;;;;;;5.60;80.73;101334.00;5034829;28;20033;-64
2022/03/25 10:07:16;;;;;;;6.90;6.60;;;;;;;5.48;82.31;101349.78;5043463;28;20030;-65
2022/03/25 10:09:42;;;;;;;7.50;7.10;;;;;;;5.55;82.53;101340.44;5042899;28;20063;-65
2022/03/25 10:12:28;;;;;;;8.85;8.35;;;;;;;4.88;86.44;101355.41;5035577;28;20079;-66
2022/03/25 10:15:20;;;;;;;7.60;7.20;;;;;;;5.22;87.02;101362.38;5022051;28;20120;-65
2022/03/25 10:18:01;;;;;;;7.05;6.75;;;;;;;5.72;84.86;101370.66;5038234;28;20030;-65
2022/03/25 10:20:31;;;;;;;6.90;6.60;;;;;;;5.13;87.36;101378.00;5032601;28;20029;-65
2022/03/25 10:23:13;;;;;;;6.75;6.45;;;;;;;5.27;87.24;101381.25;5042238;28;20029;-65
2022/03/25 10:25:44;;;;;;;7.60;7.20;;;;;;;5.04;88.12;101374.31;5045070;28;20051;-65
2022/03/25 10:28:26;;;;;;;6.80;6.50;;;;;;;5.45;87.03;101383.41;5040411;28;20037;-66
2022/03/25 10:30:57;;;;;;;6.85;6.55;;;;;;;5.66;85.99;101389.63;5021630;28;20029;-65
2022/03/25 10:33:30;;;;;;;6.93;6.63;;;;;;;5.60;85.95;101394.53;5033562;28;20473;-65
2022/03/25 10:36:07;;;;;;;7.53;7.13;;;;;;;5.94;84.87;101397.94;5044677;28;20052;-65
2022/03/25 10:39:06;;;;;;;6.70;6.40;;;;;;;6.05;84.21;101406.69;5033228;28;20032;-65
2022/03/25 10:41:43;;;;;;;7.43;7.03;;;;;;;5.65;85.56;101397.59;5040147;28;20048;-65
2022/03/25 10:44:10;;;;;;;8.20;7.75;;;;;;;5.81;85.17;101413.88;5046412;28;20083;-65
2022/03/25 10:46:36;;;;;;;7.70;7.30;;;;;;;5.92;84.88;101408.63;5039561;28;20385;-66
2022/03/25 10:49:05;;;;;;;7.28;6.88;;;;;;;6.08;84.12;101419.59;5037527;28;20021;-66
2022/03/25 10:51:33;;;;;;;6.90;6.60;;;;;;;5.98;84.29;101410.75;5035480;28;20048;-64
2022/03/25 10:54:10;;;;;;;6.90;6.60;;;;;;;5.82;85.57;101410.28;5044223;28;20033;-65
2022/03/25 10:56:48;;;;;;;6.53;6.22;;;;;;;5.53;86.76;101415.22;5033929;28;20065;-66
2022/03/25 10:59:31;;;;;;;7.00;6.70;;;;;;;5.31;87.80;101402.91;5041146;28;20049;-65
2022/03/25 11:02:08;;;;;;;8.85;8.35;;;;;;;5.86;86.80;101416.13;5041353;28;20029;-65
2022/03/25 11:04:34;;;;;;;7.68;7.28;;;;;;;5.52;87.27;101405.66;5047164;28;20032;-65
2022/03/25 11:07:03;;;;;;;6.55;6.25;;;;;;;5.95;85.61;101412.78;5027510;28;20101;-65
2022/03/25 11:09:30;;;;;;;7.05;6.72;;;;;;;6.10;84.92;101422.13;5032732;28;20389;-65
2022/03/25 11:11:57;;;;;;;7.07;6.72;;;;;;;5.83;85.74;101425.97;5039853;28;20029;-66
2022/03/25 11:14:22;;;;;;;8.00;7.60;;;;;;;5.85;86.25;101425.84;5050257;28;20040;-66
2022/03/25 11:16:54;;;;;;;7.28;6.88;;;;;;;5.62;86.37;101427.66;5038384;28;20021;-66
2022/03/25 11:19:21;;;;;;;8.43;7.93;;;;;;;5.84;86.67;101432.06;5041925;28;20095;-65
2022/03/25 11:21:49;;;;;;;6.80;6.50;;;;;;;5.78;86.96;101427.28;5027211;28;20029;-66
2022/03/25 11:24:32;;;;;;;6.35;6.05;;;;;;;5.69;86.08;101428.84;5033908;28;20112;-65
2022/03/25 11:27:05;;;;;;;7.30;6.90;;;;;;;5.71;86.85;101431.34;5025899;28;20048;-65
2022/03/25 11:29:32;;;;;;;7.20;6.85;;;;;;;5.91;85.60;101429.81;5042989;28;20025;-66
2022/03/25 11:32:06;;;;;;;6.85;6.55;;;;;;;5.70;86.04;101427.88;5046462;28;20031;-65
2022/03/25 11:34:33;;;;;;;7.28;6.88;;;;;;;6.13;84.60;101435.03;5047685;28;20074;-65
2022/03/25 11:37:32;;;;;;;6.40;6.10;;;;;;;6.27;84.19;101442.66;5030263;28;20060;-65
2022/03/25 11:40:14;;;;;;;6.53;6.22;;;;;;;6.09;83.59;101444.13;5037395;28;20026;-67